Campanya Meteocatpedra
Centenari de l'SMC: 100 anys mirant el cel

Dades de l'estació automàtica la Tosa d'Alp 2500

?
?

Resum diari

21:30 TU
Dades diàries de l'estació meteorològica
Temperatura mitjana 2.4 °C
Temperatura màxima 5.0 °C 13:46 TU
Temperatura mínima -0.8 °C 21:57 TU
Humitat relativa mitjana 96%
Ratxa màxima del vent (10 m) 43.2 km/h - 241º 3:31 TU
Irradiació solar global 9.5 MJ/m2

El tram horari està expressat en Temps Universal (TU). Cal sumar una hora en horari d'hivern i dues en horari d'estiu per passar a l'hora oficial.

la Tosa d'Alp 2500

Metadades estació meteorològica
Municipi Alp
Comarca Cerdanya
Altitud 2478 m
Data alta 04.09.2014
Estat actual Operativa
Dades de període
Període
TU
TM
°C
TX
°C
TN
°C
HRM
%
VVM (10 m)
km/h
DVM (10 m)
graus
VVX (10 m)
km/h
RS
W/m2
00:00 - 00:30 3.0 3.3 2.9 100 19.8 253 36.0 0
00:30 - 01:00 3.4 3.4 3.3 100 19.8 250 31.0 0
01:00 - 01:30 3.4 3.5 3.4 100 18.7 251 31.7 0
01:30 - 02:00 3.6 3.6 3.6 100 19.8 256 37.1 0
02:00 - 02:30 3.6 3.6 3.5 100 19.8 254 31.7 0
02:30 - 03:00 3.1 3.5 2.8 100 24.1 245 39.6 0
03:00 - 03:30 3.1 3.4 2.8 100 22.7 245 38.2 0
03:30 - 04:00 3.1 3.3 2.7 100 21.6 248 43.2 0
04:00 - 04:30 2.9 3.1 2.6 100 24.8 255 42.8 0
04:30 - 05:00 3.0 3.1 2.9 100 20.9 260 33.8 0
05:00 - 05:30 2.7 2.9 2.5 100 16.6 269 24.8 0
05:30 - 06:00 2.6 2.8 2.2 100 13.0 309 18.7 6
06:00 - 06:30 1.4 2.1 0.9 100 11.9 6 21.2 28
06:30 - 07:00 0.8 0.9 0.7 100 11.5 15 24.8 91
07:00 - 07:30 0.9 1.4 0.7 100 6.5 31 13.0 219
07:30 - 08:00 2.7 3.6 1.5 98 3.2 318 11.2 348
08:00 - 08:30 2.8 3.4 2.5 95 3.6 40 8.6 380
08:30 - 09:00 2.8 3.2 2.5 94 4.0 22 8.6 336
09:00 - 09:30 2.9 3.2 2.5 92 2.5 20 7.2 322
09:30 - 10:00 2.9 3.3 2.8 91 3.6 30 9.0 306
10:00 - 10:30 3.7 4.0 3.3 87 4.7 358 13.0 406
10:30 - 11:00 3.6 4.0 3.4 91 4.0 29 9.7 324
11:00 - 11:30 3.8 4.2 3.6 89 7.2 12 13.0 268
11:30 - 12:00 3.7 3.8 3.5 89 8.3 15 15.5 253
12:00 - 12:30 3.8 4.1 3.5 90 4.7 25 11.5 212
12:30 - 13:00 3.9 4.2 3.7 86 7.2 21 15.5 296
13:00 - 13:30 4.0 4.2 3.6 85 7.9 354 16.6 347
13:30 - 14:00 4.7 5.0 4.0 83 5.0 63 12.6 589
14:00 - 14:30 4.6 5.0 4.2 83 4.7 20 10.4 255
14:30 - 15:00 4.2 4.4 4.0 87 6.8 11 12.6 101
15:00 - 15:30 3.8 4.0 3.5 89 9.7 4 18.0 76
15:30 - 16:00 2.9 3.4 2.6 93 4.7 26 13.7 77
16:00 - 16:30 2.9 3.1 2.8 99 4.7 271 11.5 33
16:30 - 17:00 2.1 2.9 1.8 100 8.3 329 20.5 16
17:00 - 17:30 2.2 2.4 1.8 100 11.9 308 23.4 6
17:30 - 18:00 0.9 1.6 0.4 100 16.2 6 23.4 1
18:00 - 18:30 0.0 0.4 -0.2 100 12.2 346 21.6 0
18:30 - 19:00 -0.1 0.0 -0.2 100 11.5 8 22.3 0
19:00 - 19:30 -0.3 -0.1 -0.5 100 19.4 3 31.7 0
19:30 - 20:00 -0.3 -0.3 -0.5 100 20.5 353 28.8 0
20:00 - 20:30 -0.3 -0.2 -0.4 100 18.4 1 27.0 0
20:30 - 21:00 -0.3 -0.3 -0.3 100 18.4 6 25.2 0
21:00 - 21:30 -0.5 -0.3 -0.6 100 11.2 9 16.9 0
21:30 - 22:00 -0.7 -0.5 -0.8 100 11.5 34 18.4 0

Les dades en taronja només han passat un control de qualitat automàtic. Resta pendent la seva validació definitiva.